createdAt,value
2018-11-28T00:01:46.368Z,-1.80
2018-11-28T00:04:14.633Z,-1.80
2018-11-28T00:06:42.914Z,-1.80
2018-11-28T00:09:11.447Z,-1.80
2018-11-28T00:11:39.939Z,-1.80
2018-11-28T00:14:08.274Z,-1.70
2018-11-28T00:16:36.696Z,-1.70
2018-11-28T00:19:05.331Z,-1.70
2018-11-28T00:21:33.717Z,-1.70
2018-11-28T00:24:02.112Z,-1.80
2018-11-28T00:26:30.451Z,-1.80
2018-11-28T00:28:59.295Z,-1.80
2018-11-28T00:31:27.627Z,-1.80
2018-11-28T00:33:56.918Z,-1.80
2018-11-28T00:36:25.341Z,-1.80
2018-11-28T00:38:53.725Z,-1.80
2018-11-28T00:41:22.058Z,-1.80
2018-11-28T00:43:50.484Z,-1.80
2018-11-28T00:46:19.035Z,-1.80
2018-11-28T00:48:47.497Z,-1.80
2018-11-28T00:51:15.883Z,-1.80
2018-11-28T00:53:44.232Z,-1.80
2018-11-28T00:56:12.745Z,-1.80
2018-11-28T00:58:41.027Z,-1.90
2018-11-28T01:01:09.471Z,-1.90
2018-11-28T01:03:37.842Z,-1.90
2018-11-28T01:06:06.470Z,-1.90
2018-11-28T01:08:34.961Z,-1.90
2018-11-28T01:11:03.495Z,-1.90
2018-11-28T01:13:31.869Z,-1.90
2018-11-28T01:16:01.016Z,-1.90
2018-11-28T01:18:29.451Z,-1.80
2018-11-28T01:20:57.739Z,-1.90
2018-11-28T01:23:26.014Z,-1.90
2018-11-28T01:25:54.388Z,-1.90
2018-11-28T01:28:22.704Z,-1.90
2018-11-28T01:30:51.084Z,-1.90
2018-11-28T01:33:19.360Z,-1.90
2018-11-28T01:35:47.635Z,-1.90
2018-11-28T01:38:15.942Z,-1.90
2018-11-28T01:40:44.258Z,-1.90
2018-11-28T01:43:12.543Z,-1.90
2018-11-28T01:45:40.848Z,-1.90
2018-11-28T01:48:09.344Z,-1.90
2018-11-28T01:50:37.728Z,-1.90
2018-11-28T01:53:06.775Z,-1.90
2018-11-28T01:55:35.422Z,-1.90
2018-11-28T01:58:04.636Z,-1.90
2018-11-28T02:00:33.406Z,-1.90
2018-11-28T02:03:03.634Z,-1.90
2018-11-28T02:05:32.139Z,-1.90
2018-11-28T02:08:01.296Z,-1.90
2018-11-28T02:10:30.857Z,-1.90
2018-11-28T02:13:01.293Z,-1.90
2018-11-28T02:15:29.711Z,-1.90
2018-11-28T02:17:58.503Z,-1.90
2018-11-28T02:20:27.980Z,-2.00
2018-11-28T02:22:56.442Z,-2.10
2018-11-28T02:25:24.795Z,-2.10
2018-11-28T02:27:53.138Z,-2.10
2018-11-28T02:30:21.452Z,-2.10
2018-11-28T02:32:50.117Z,-2.20
2018-11-28T02:35:18.974Z,-2.20
2018-11-28T02:37:47.773Z,-2.20
2018-11-28T02:40:16.953Z,-2.30
2018-11-28T02:42:45.854Z,-2.30
2018-11-28T02:45:16.971Z,-2.30
2018-11-28T02:47:45.354Z,-2.30
2018-11-28T02:50:13.700Z,-2.20
2018-11-28T02:52:42.131Z,-2.20
2018-11-28T02:55:17.862Z,-2.20
2018-11-28T02:57:47.172Z,-2.20
2018-11-28T03:00:17.695Z,-2.30
2018-11-28T03:02:45.992Z,-2.30
2018-11-28T03:05:14.509Z,-2.30
2018-11-28T03:07:42.795Z,-2.30
2018-11-28T03:10:13.989Z,-2.40
2018-11-28T03:12:42.338Z,-2.40
2018-11-28T03:15:21.964Z,-2.40
2018-11-28T03:17:50.340Z,-2.40
2018-11-28T03:20:18.613Z,-2.40
2018-11-28T03:22:47.050Z,-2.40
2018-11-28T03:25:15.492Z,-2.40
2018-11-28T03:27:43.992Z,-2.40
2018-11-28T03:30:13.835Z,-2.40
2018-11-28T03:32:42.244Z,-2.40
2018-11-28T03:35:11.924Z,-2.40
2018-11-28T03:37:40.276Z,-2.40
2018-11-28T03:40:08.802Z,-2.50
2018-11-28T03:42:37.183Z,-2.50
2018-11-28T03:45:08.584Z,-2.50
2018-11-28T03:47:36.869Z,-2.50
2018-11-28T03:50:05.574Z,-2.50
2018-11-28T03:52:33.880Z,-2.50
2018-11-28T03:55:02.190Z,-2.50
2018-11-28T03:57:30.445Z,-2.50
2018-11-28T03:59:58.721Z,-2.50
2018-11-28T04:02:26.995Z,-2.50
2018-11-28T04:04:55.310Z,-2.50
2018-11-28T04:07:23.661Z,-2.60
2018-11-28T04:09:51.921Z,-2.60
2018-11-28T04:12:20.246Z,-2.70
2018-11-28T04:14:48.580Z,-2.70
2018-11-28T04:17:16.964Z,-2.70
2018-11-28T04:19:45.275Z,-2.70
2018-11-28T04:22:13.595Z,-2.60
2018-11-28T04:24:41.898Z,-2.60
2018-11-28T04:27:10.233Z,-2.60
2018-11-28T04:29:38.551Z,-2.70
2018-11-28T04:32:06.863Z,-2.70
2018-11-28T04:34:35.170Z,-2.70
2018-11-28T04:37:03.497Z,-2.70
2018-11-28T04:39:31.807Z,-2.70
2018-11-28T04:42:00.172Z,-2.70
2018-11-28T04:44:28.519Z,-2.60
2018-11-28T04:46:56.836Z,-2.60
2018-11-28T04:49:25.161Z,-2.50
2018-11-28T04:51:53.534Z,-2.40
2018-11-28T04:54:21.850Z,-2.40
2018-11-28T04:56:50.184Z,-2.40
2018-11-28T04:59:19.247Z,-2.40
2018-11-28T05:01:47.879Z,-2.50
2018-11-28T05:04:16.208Z,-2.50
2018-11-28T05:07:49.218Z,-2.50
2018-11-28T05:10:23.598Z,-2.50
2018-11-28T05:12:52.510Z,-2.50
2018-11-28T05:15:21.633Z,-2.60
2018-11-28T05:17:51.607Z,-2.60
2018-11-28T05:20:22.545Z,-2.60
2018-11-28T05:22:50.815Z,-2.60
2018-11-28T05:25:22.815Z,-2.60
2018-11-28T05:27:52.930Z,-2.60
2018-11-28T05:30:22.824Z,-2.60
2018-11-28T05:32:51.138Z,-2.50
2018-11-28T05:35:29.439Z,-2.50
2018-11-28T05:37:57.789Z,-2.50
2018-11-28T05:40:26.853Z,-2.50
2018-11-28T05:42:55.273Z,-2.50
2018-11-28T05:45:24.653Z,-2.50
2018-11-28T05:47:52.984Z,-2.50
2018-11-28T05:50:22.037Z,-2.40
2018-11-28T05:52:50.510Z,-2.40
2018-11-28T05:55:19.848Z,-2.30
2018-11-28T05:57:48.180Z,-2.30
2018-11-28T06:00:38.748Z,-2.30
2018-11-28T06:03:10.662Z,-2.30
2018-11-28T06:05:39.774Z,-2.20
2018-11-28T06:08:08.304Z,-2.20
2018-11-28T06:10:36.764Z,-2.20
2018-11-28T06:13:05.189Z,-2.30
2018-11-28T06:15:33.582Z,-2.30
2018-11-28T06:18:01.866Z,-2.30
2018-11-28T06:20:30.182Z,-2.30
2018-11-28T06:22:58.448Z,-2.30
2018-11-28T06:25:27.984Z,-2.20
2018-11-28T06:27:56.868Z,-2.20
2018-11-28T06:30:25.259Z,-2.20
2018-11-28T06:32:53.578Z,-2.10
2018-11-28T06:35:21.988Z,-2.10
2018-11-28T06:37:50.368Z,-2.10
2018-11-28T06:40:23.919Z,-2.10
2018-11-28T06:42:48.674Z,-2.10
2018-11-28T06:45:19.145Z,-2.10
2018-11-28T06:47:47.544Z,-2.10
2018-11-28T06:50:17.490Z,-2.10
2018-11-28T06:52:50.036Z,-2.10
2018-11-28T06:55:19.403Z,-2.00
2018-11-28T06:57:47.708Z,-2.00
2018-11-28T07:00:16.891Z,-2.00
2018-11-28T07:02:45.467Z,-1.90
2018-11-28T07:05:13.838Z,-1.90
2018-11-28T07:07:42.154Z,-1.80
2018-11-28T07:10:15.201Z,-1.70
2018-11-28T07:12:43.962Z,-1.60
2018-11-28T07:15:14.200Z,-1.50
2018-11-28T07:17:43.487Z,-1.40
2018-11-28T07:20:13.377Z,-1.20
2018-11-28T07:22:42.324Z,-0.90
2018-11-28T07:25:16.476Z,-0.80
2018-11-28T07:27:46.386Z,-0.70
2018-11-28T07:30:16.673Z,-0.60
2018-11-28T07:32:45.084Z,-0.50
2018-11-28T07:35:14.063Z,-0.40
2018-11-28T07:37:42.331Z,-0.40
2018-11-28T07:40:14.962Z,-0.20
2018-11-28T07:42:45.138Z,-0.10
2018-11-28T07:45:14.302Z,0.10
2018-11-28T07:47:42.645Z,0.20
2018-11-28T07:50:11.052Z,0.30
2018-11-28T07:52:39.396Z,0.50
2018-11-28T07:55:09.890Z,0.70
2018-11-28T07:57:38.392Z,0.80
2018-11-28T08:00:13.094Z,1.00
2018-11-28T08:02:42.676Z,1.10
2018-11-28T08:05:11.748Z,1.20
2018-11-28T08:07:40.075Z,1.30
2018-11-28T08:10:10.883Z,1.40
2018-11-28T08:12:39.230Z,1.50
2018-11-28T08:15:08.971Z,1.50
2018-11-28T08:17:37.264Z,1.60
2018-11-28T08:20:05.973Z,1.60
2018-11-28T08:22:34.439Z,1.70
2018-11-28T08:25:03.122Z,1.70
2018-11-28T08:27:31.318Z,1.70
2018-11-28T08:29:59.722Z,1.80
2018-11-28T08:32:28.020Z,1.90
2018-11-28T08:34:57.688Z,2.00
2018-11-28T08:37:26.130Z,2.00
2018-11-28T08:39:54.914Z,2.10
2018-11-28T08:42:23.233Z,2.20
2018-11-28T08:44:52.142Z,2.30
2018-11-28T08:47:20.498Z,2.40
2018-11-28T08:49:48.859Z,2.40
2018-11-28T08:52:17.692Z,2.40
2018-11-28T08:54:47.376Z,2.40
2018-11-28T08:57:16.240Z,2.40
2018-11-28T08:59:44.808Z,2.40
2018-11-28T09:02:13.114Z,2.50
2018-11-28T09:04:41.763Z,2.50
2018-11-28T09:07:10.418Z,2.50
2018-11-28T09:09:38.838Z,2.60
2018-11-28T09:12:07.162Z,2.60
2018-11-28T09:14:35.445Z,2.60
2018-11-28T09:17:03.673Z,2.70
2018-11-28T09:19:31.967Z,2.80
2018-11-28T09:22:00.267Z,2.80
2018-11-28T09:24:28.564Z,2.90
2018-11-28T09:26:56.838Z,3.00
2018-11-28T09:29:25.164Z,3.10
2018-11-28T09:31:54.232Z,3.10
2018-11-28T09:34:22.922Z,3.20
2018-11-28T09:36:51.260Z,3.20
2018-11-28T09:39:19.520Z,3.30
2018-11-28T09:41:47.808Z,3.30
2018-11-28T09:44:16.420Z,3.30
2018-11-28T09:46:45.401Z,3.40
2018-11-28T09:49:13.707Z,3.50
2018-11-28T09:51:42.034Z,3.60
2018-11-28T09:54:10.942Z,3.60
2018-11-28T09:56:39.288Z,3.70
2018-11-28T09:59:07.652Z,3.70
2018-11-28T10:01:35.954Z,3.80
2018-11-28T10:04:04.230Z,3.90
2018-11-28T10:06:32.512Z,4.10
2018-11-28T10:09:00.757Z,4.30
2018-11-28T10:11:29.081Z,4.40
2018-11-28T10:13:57.354Z,4.60
2018-11-28T10:16:26.095Z,4.70
2018-11-28T10:18:54.383Z,4.90
2018-11-28T10:21:22.683Z,4.90
2018-11-28T10:23:51.007Z,4.90
2018-11-28T10:26:19.323Z,5.00
2018-11-28T10:28:47.774Z,5.00
2018-11-28T10:31:16.140Z,5.10
2018-11-28T10:33:44.457Z,5.20
2018-11-28T10:36:12.764Z,5.20
2018-11-28T10:38:41.036Z,5.20
2018-11-28T10:41:09.340Z,5.20
2018-11-28T10:43:38.299Z,5.30
2018-11-28T10:46:06.660Z,5.30
2018-11-28T10:48:34.987Z,5.30
2018-11-28T10:51:03.255Z,5.50
2018-11-28T10:53:32.196Z,5.60
2018-11-28T10:56:00.447Z,5.60
2018-11-28T10:58:29.716Z,5.70
2018-11-28T11:01:03.294Z,5.80
2018-11-28T11:03:37.328Z,5.90
2018-11-28T11:06:11.393Z,5.90
2018-11-28T11:08:45.063Z,5.90
2018-11-28T11:11:18.895Z,5.90
2018-11-28T11:13:52.666Z,5.90
2018-11-28T11:16:26.177Z,5.90
2018-11-28T11:18:54.503Z,5.90
2018-11-28T11:21:22.798Z,5.90
2018-11-28T11:23:51.136Z,5.80
2018-11-28T11:26:19.527Z,5.80
2018-11-28T11:28:48.251Z,5.80
2018-11-28T11:31:16.580Z,5.80
2018-11-28T11:33:44.845Z,5.80
2018-11-28T11:36:14.020Z,5.80
2018-11-28T11:38:42.337Z,5.80
2018-11-28T11:43:32.978Z,5.80
2018-11-28T11:46:01.249Z,5.80
2018-11-28T11:48:29.569Z,5.80
2018-11-28T11:50:57.885Z,5.80
2018-11-28T11:53:26.157Z,5.80
2018-11-28T11:55:54.412Z,5.90
2018-11-28T11:58:22.787Z,5.90
2018-11-28T12:00:51.632Z,5.90
2018-11-28T12:03:19.988Z,6.00
2018-11-28T12:05:51.636Z,6.10
2018-11-28T12:08:20.043Z,6.10
2018-11-28T12:10:48.335Z,6.10
2018-11-28T12:13:16.643Z,6.10
2018-11-28T12:15:44.936Z,6.10
2018-11-28T12:18:13.273Z,6.10
2018-11-28T12:20:49.055Z,6.10
2018-11-28T12:23:17.348Z,6.20
2018-11-28T12:25:45.773Z,6.20
2018-11-28T12:28:14.174Z,6.20
2018-11-28T12:30:43.171Z,6.20
2018-11-28T12:33:11.427Z,6.30
2018-11-28T12:35:40.306Z,6.20
2018-11-28T12:38:08.804Z,6.20
2018-11-28T12:40:37.229Z,6.30
2018-11-28T12:43:09.449Z,6.30
2018-11-28T12:45:40.761Z,6.30
2018-11-28T12:48:09.236Z,6.30
2018-11-28T12:50:37.622Z,6.30
2018-11-28T12:53:09.535Z,6.30
2018-11-28T12:55:39.236Z,6.20
2018-11-28T12:58:11.710Z,6.20
2018-11-28T13:00:40.510Z,6.20
2018-11-28T13:03:10.057Z,6.20
2018-11-28T13:05:38.328Z,6.20
2018-11-28T13:08:06.788Z,6.10
2018-11-28T13:10:36.417Z,6.10
2018-11-28T13:13:06.244Z,6.10
2018-11-28T13:15:35.048Z,6.10
2018-11-28T13:18:03.528Z,6.10
2018-11-28T13:20:31.859Z,6.10
2018-11-28T13:23:00.234Z,6.00
2018-11-28T13:25:28.766Z,6.00
2018-11-28T13:27:57.358Z,5.90
2018-11-28T13:30:26.516Z,5.90
2018-11-28T13:32:56.451Z,5.80
2018-11-28T13:35:26.481Z,5.80
2018-11-28T13:37:58.508Z,5.80
2018-11-28T13:40:26.844Z,5.70
2018-11-28T13:42:55.274Z,5.70
2018-11-28T13:45:24.825Z,5.70
2018-11-28T13:47:53.946Z,5.60
2018-11-28T13:50:22.211Z,5.60
2018-11-28T13:52:51.122Z,5.60
2018-11-28T13:55:39.810Z,5.60
2018-11-28T13:57:51.117Z,5.60
2018-11-28T14:00:19.847Z,5.50
2018-11-28T14:02:48.052Z,5.50
2018-11-28T14:05:16.349Z,5.50
2018-11-28T14:07:45.199Z,5.50
2018-11-28T14:10:14.214Z,5.50
2018-11-28T14:12:42.608Z,5.50
2018-11-28T14:15:28.135Z,5.50
2018-11-28T14:18:01.496Z,5.50
2018-11-28T14:20:29.800Z,5.50
2018-11-28T14:22:58.156Z,5.50
2018-11-28T14:25:26.615Z,5.50
2018-11-28T14:27:54.839Z,5.50
2018-11-28T14:30:25.159Z,5.50
2018-11-28T14:32:52.617Z,5.50
2018-11-28T14:35:21.648Z,5.70
2018-11-28T14:37:49.965Z,5.80
2018-11-28T14:40:19.306Z,5.70
2018-11-28T14:42:48.968Z,5.70
2018-11-28T14:45:18.134Z,5.60
2018-11-28T14:47:46.751Z,5.60
2018-11-28T14:50:16.955Z,5.50
2018-11-28T14:52:45.349Z,5.50
2018-11-28T14:55:15.640Z,5.50
2018-11-28T14:57:44.140Z,5.50
2018-11-28T15:00:29.128Z,5.40
2018-11-28T15:03:03.044Z,5.40
2018-11-28T15:06:37.580Z,5.40
2018-11-28T15:09:14.303Z,5.40
2018-11-28T15:11:43.651Z,5.30
2018-11-28T15:14:12.043Z,5.30
2018-11-28T15:16:40.362Z,5.30
2018-11-28T15:19:08.755Z,5.30
2018-11-28T15:21:37.052Z,5.30
2018-11-28T15:24:05.741Z,5.30
2018-11-28T15:26:34.062Z,5.30
2018-11-28T15:29:03.370Z,5.20
2018-11-28T15:31:32.368Z,5.20
2018-11-28T15:34:00.984Z,5.30
2018-11-28T15:36:29.670Z,5.30
2018-11-28T15:38:58.096Z,5.20
2018-11-28T15:41:26.374Z,5.20
2018-11-28T15:43:55.058Z,5.30
2018-11-28T15:46:23.314Z,5.30
2018-11-28T15:48:51.766Z,5.30
2018-11-28T15:51:20.523Z,5.30
2018-11-28T15:53:48.862Z,5.30
2018-11-28T15:56:17.216Z,5.30
2018-11-28T15:58:45.441Z,5.30
2018-11-28T16:01:13.790Z,5.30
2018-11-28T16:03:42.101Z,5.30
2018-11-28T16:06:10.474Z,5.30
2018-11-28T16:08:38.776Z,5.30
2018-11-28T16:11:10.864Z,5.20
2018-11-28T16:13:39.179Z,5.20
2018-11-28T16:16:07.876Z,5.30
2018-11-28T16:18:36.179Z,5.30
2018-11-28T16:21:04.974Z,5.30
2018-11-28T16:23:33.348Z,5.30
2018-11-28T16:26:01.688Z,5.30
2018-11-28T16:28:30.187Z,5.40
2018-11-28T16:30:58.740Z,5.40
2018-11-28T16:33:27.427Z,5.40
2018-11-28T16:35:55.873Z,5.40
2018-11-28T16:38:24.128Z,5.40
2018-11-28T16:40:52.452Z,5.40
2018-11-28T16:43:20.717Z,5.40
2018-11-28T16:45:49.049Z,5.40
2018-11-28T16:48:17.315Z,5.30
2018-11-28T16:50:45.788Z,5.40
2018-11-28T16:53:14.136Z,5.30
2018-11-28T16:55:42.459Z,5.30
2018-11-28T16:58:10.743Z,5.30
2018-11-28T17:00:40.572Z,5.30
2018-11-28T17:03:08.922Z,5.30
2018-11-28T17:05:37.618Z,5.30
2018-11-28T17:08:07.696Z,5.30
2018-11-28T17:10:36.049Z,5.30
2018-11-28T17:13:04.576Z,5.30
2018-11-28T17:15:33.084Z,5.30
2018-11-28T17:18:01.398Z,5.30
2018-11-28T17:20:29.801Z,5.20
2018-11-28T17:22:59.208Z,5.20
2018-11-28T17:25:31.730Z,5.20
2018-11-28T17:28:00.152Z,5.30
2018-11-28T17:30:29.404Z,5.30
2018-11-28T17:32:57.831Z,5.30
2018-11-28T17:35:26.148Z,5.30
2018-11-28T17:37:54.667Z,5.30
2018-11-28T17:40:24.947Z,5.30
2018-11-28T17:42:54.530Z,5.30
2018-11-28T17:45:23.281Z,5.30
2018-11-28T17:47:51.622Z,5.40
2018-11-28T17:50:21.096Z,5.40
2018-11-28T17:53:03.889Z,5.30
2018-11-28T17:55:37.171Z,5.40
2018-11-28T17:58:06.018Z,5.30
2018-11-28T18:00:34.373Z,5.40
2018-11-28T18:03:02.773Z,5.40
2018-11-28T18:05:31.128Z,5.40
2018-11-28T18:07:59.439Z,5.40
2018-11-28T18:10:27.700Z,5.40
2018-11-28T18:13:07.875Z,5.30
2018-11-28T18:15:36.259Z,5.30
2018-11-28T18:18:05.611Z,5.30
2018-11-28T18:20:33.916Z,5.30
2018-11-28T18:23:02.180Z,5.30
2018-11-28T18:25:31.550Z,5.40
2018-11-28T18:28:00.245Z,5.30
2018-11-28T18:30:28.529Z,5.40
2018-11-28T18:32:56.934Z,5.40
2018-11-28T18:35:25.261Z,5.40
2018-11-28T18:37:53.536Z,5.40
2018-11-28T18:40:22.385Z,5.40
2018-11-28T18:42:57.444Z,5.40
2018-11-28T18:45:27.148Z,5.40
2018-11-28T18:47:55.408Z,5.40
2018-11-28T18:50:24.603Z,5.40
2018-11-28T18:52:52.878Z,5.40
2018-11-28T18:55:24.284Z,5.40
2018-11-28T18:57:54.086Z,5.40
2018-11-28T19:00:24.265Z,5.40
2018-11-28T19:02:53.106Z,5.40
2018-11-28T19:05:21.566Z,5.40
2018-11-28T19:07:49.914Z,5.40
2018-11-28T19:10:26.083Z,5.40
2018-11-28T19:12:48.495Z,5.40
2018-11-28T19:15:20.768Z,5.40
2018-11-28T19:17:49.400Z,5.40
2018-11-28T19:20:19.613Z,5.40
2018-11-28T19:22:48.369Z,5.30
2018-11-28T19:25:19.597Z,5.20
2018-11-28T19:27:48.412Z,5.20
2018-11-28T19:30:21.049Z,5.20
2018-11-28T19:32:49.361Z,5.10
2018-11-28T19:35:17.686Z,5.10
2018-11-28T19:37:46.088Z,5.10
2018-11-28T19:40:25.386Z,5.00
2018-11-28T19:42:53.728Z,5.00
2018-11-28T19:45:22.211Z,5.00
2018-11-28T19:47:50.552Z,4.90
2018-11-28T19:50:30.325Z,4.90
2018-11-28T19:52:58.622Z,5.00
2018-11-28T19:55:26.871Z,5.00
2018-11-28T19:57:55.208Z,5.00
2018-11-28T20:00:23.705Z,5.00
2018-11-28T20:02:52.000Z,5.00
2018-11-28T20:05:20.340Z,5.00
2018-11-28T20:07:49.902Z,5.00
2018-11-28T20:10:21.282Z,5.00
2018-11-28T20:12:49.739Z,5.00
2018-11-28T20:15:20.449Z,4.90
2018-11-28T20:17:48.983Z,4.90
2018-11-28T20:20:17.445Z,4.90
2018-11-28T20:22:45.757Z,5.00
2018-11-28T20:25:17.062Z,5.00
2018-11-28T20:27:46.904Z,5.00
2018-11-28T20:30:21.577Z,5.00
2018-11-28T20:32:49.937Z,5.00
2018-11-28T20:35:18.328Z,5.00
2018-11-28T20:37:46.652Z,5.00
2018-11-28T20:40:16.943Z,5.00
2018-11-28T20:42:47.622Z,5.00
2018-11-28T20:45:16.154Z,5.00
2018-11-28T20:47:44.482Z,5.00
2018-11-28T20:50:16.336Z,5.00
2018-11-28T20:52:46.653Z,5.00
2018-11-28T20:55:23.805Z,5.00
2018-11-28T20:57:52.530Z,5.00
2018-11-28T21:00:22.631Z,5.10
2018-11-28T21:02:50.960Z,5.10
2018-11-28T21:05:19.411Z,5.10
2018-11-28T21:07:47.706Z,5.00
2018-11-28T21:10:21.786Z,5.10
2018-11-28T21:12:50.473Z,5.10
2018-11-28T21:15:18.820Z,5.10
2018-11-28T21:17:47.336Z,5.10
2018-11-28T21:20:17.703Z,5.20
2018-11-28T21:22:52.434Z,5.20
2018-11-28T21:25:20.745Z,5.20
2018-11-28T21:27:49.072Z,5.20
2018-11-28T21:30:19.222Z,5.20
2018-11-28T21:32:48.012Z,5.20
2018-11-28T21:35:17.566Z,5.20
2018-11-28T21:37:45.837Z,5.20
2018-11-28T21:40:14.154Z,5.20
2018-11-28T21:42:42.724Z,5.20
2018-11-28T21:45:14.123Z,5.20
2018-11-28T21:47:42.478Z,5.20
2018-11-28T21:50:13.259Z,5.30
2018-11-28T21:52:41.600Z,5.30
2018-11-28T21:55:16.692Z,5.20
2018-11-28T21:57:47.301Z,5.30
2018-11-28T22:00:18.540Z,5.30
2018-11-28T22:03:04.160Z,5.30
2018-11-28T22:05:32.458Z,5.30
2018-11-28T22:08:00.832Z,5.40
2018-11-28T22:10:29.101Z,5.40
2018-11-28T22:12:57.383Z,5.40
2018-11-28T22:15:25.712Z,5.40
2018-11-28T22:17:56.051Z,5.40
2018-11-28T22:20:25.042Z,5.40
2018-11-28T22:22:53.477Z,5.40
2018-11-28T22:25:23.617Z,5.40
2018-11-28T22:27:51.962Z,5.50
2018-11-28T22:30:22.092Z,5.50
2018-11-28T22:32:50.422Z,5.40
2018-11-28T22:35:18.866Z,5.50
2018-11-28T22:37:47.303Z,5.50
2018-11-28T22:40:19.751Z,5.40
2018-11-28T22:42:48.331Z,5.50
2018-11-28T22:45:17.828Z,5.50
2018-11-28T22:47:46.292Z,5.50
2018-11-28T22:50:14.887Z,5.50
2018-11-28T22:52:44.099Z,5.50
2018-11-28T22:55:13.341Z,5.50
2018-11-28T22:57:41.754Z,5.50
2018-11-28T23:00:16.601Z,5.50
2018-11-28T23:02:53.267Z,5.60
2018-11-28T23:05:22.795Z,5.50
2018-11-28T23:07:51.227Z,5.60
2018-11-28T23:10:19.584Z,5.50
2018-11-28T23:12:47.872Z,5.50
2018-11-28T23:15:16.181Z,5.50
2018-11-28T23:17:44.798Z,5.50
2018-11-28T23:20:13.071Z,5.50
2018-11-28T23:22:41.448Z,5.50
2018-11-28T23:25:11.488Z,5.50
2018-11-28T23:27:39.834Z,5.50
2018-11-28T23:30:12.532Z,5.50
2018-11-28T23:32:40.891Z,5.50
2018-11-28T23:35:10.211Z,5.50
2018-11-28T23:37:38.855Z,5.50
2018-11-28T23:40:11.791Z,5.50
2018-11-28T23:42:40.294Z,5.60
2018-11-28T23:45:10.554Z,5.60
2018-11-28T23:47:38.896Z,5.60
2018-11-28T23:50:17.682Z,5.60
2018-11-28T23:52:46.354Z,5.60
2018-11-28T23:55:20.345Z,5.60
2018-11-28T23:57:49.865Z,5.60
